Time;durP1;ratioP1;P1;durP2;ratioP2;P2;SDS_P1;SDS_P2;PMS_P1;PMS_P2;Temp;Humidity;BMP_temperature;BMP_pressure;BME280_temperature;BME280_humidity;BME280_pressure;Samples;Min_cycle;Max_cycle;Signal;HPM_P1;HPM_P2
2020/12/17 00:01:53;;;;;;;16.83;10.70;;;9.10;99.90;;;;;;5066358;28;20016;-74
2020/12/17 00:04:19;;;;;;;14.00;10.70;;;9.10;99.90;;;;;;5072906;28;20040;-75
2020/12/17 00:06:44;;;;;;;13.40;10.15;;;9.10;99.90;;;;;;5067219;28;20501;-74
2020/12/17 00:09:10;;;;;;;13.80;10.45;;;9.10;99.90;;;;;;5074917;28;20024;-74
2020/12/17 00:11:35;;;;;;;12.65;9.98;;;9.10;99.90;;;;;;5085786;28;20017;-75
2020/12/17 00:14:00;;;;;;;13.25;10.73;;;9.10;99.90;;;;;;5086301;28;20375;-74
2020/12/17 00:16:26;;;;;;;12.95;9.68;;;9.10;99.90;;;;;;5083667;28;20081;-74
2020/12/17 00:18:51;;;;;;;13.05;10.20;;;9.10;99.90;;;;;;5066252;28;20078;-74
2020/12/17 00:21:20;;;;;;;14.43;9.95;;;9.10;99.90;;;;;;5067027;28;20035;-74
2020/12/17 00:23:46;;;;;;;17.27;10.93;;;9.10;99.90;;;;;;5067765;28;20492;-74
2020/12/17 00:26:12;;;;;;;15.55;10.55;;;9.10;99.90;;;;;;5083825;28;20032;-74
2020/12/17 00:28:38;;;;;;;13.57;9.57;;;9.10;99.90;;;;;;5066717;28;20027;-74
2020/12/17 00:31:04;;;;;;;17.10;10.77;;;9.10;99.90;;;;;;5082260;28;20013;-75
2020/12/17 00:33:29;;;;;;;14.50;9.68;;;9.10;99.90;;;;;;5086473;28;20016;-74
2020/12/17 00:35:55;;;;;;;13.45;9.95;;;9.10;99.90;;;;;;5085667;28;20024;-74
2020/12/17 00:38:20;;;;;;;11.93;9.90;;;9.10;99.90;;;;;;5087571;28;20025;-74
2020/12/17 00:40:46;;;;;;;13.13;10.32;;;9.10;99.90;;;;;;5066538;28;20024;-75
2020/12/17 00:43:11;;;;;;;14.48;9.30;;;9.10;99.90;;;;;;5085450;28;20494;-74
2020/12/17 00:45:36;;;;;;;13.00;9.88;;;9.10;99.90;;;;;;5083924;28;20090;-74
2020/12/17 00:48:02;;;;;;;11.38;9.30;;;9.10;99.90;;;;;;5061293;28;20066;-74
2020/12/17 00:50:27;;;;;;;11.43;8.80;;;9.10;99.90;;;;;;5059931;28;20028;-74
2020/12/17 00:52:53;;;;;;;12.13;8.95;;;9.20;99.90;;;;;;5084606;28;20487;-75
2020/12/17 00:55:18;;;;;;;11.55;8.93;;;9.20;99.90;;;;;;5082638;28;20016;-75
2020/12/17 00:57:44;;;;;;;12.90;9.32;;;9.10;99.90;;;;;;5068595;28;20399;-75
2020/12/17 01:00:10;;;;;;;11.75;8.93;;;9.20;99.90;;;;;;5065147;28;20032;-75
2020/12/17 01:02:36;;;;;;;10.68;8.82;;;9.20;99.90;;;;;;5066094;28;20055;-75
2020/12/17 01:05:02;;;;;;;9.73;8.70;;;9.20;99.90;;;;;;5063448;28;20056;-75
2020/12/17 01:07:28;;;;;;;11.20;9.10;;;9.20;99.90;;;;;;5058566;28;20028;-75
2020/12/17 01:09:53;;;;;;;12.65;8.90;;;9.20;99.90;;;;;;5084790;28;20496;-74
2020/12/17 01:12:19;;;;;;;11.18;8.40;;;9.30;99.90;;;;;;5085240;28;20095;-75
2020/12/17 01:14:44;;;;;;;10.00;8.25;;;9.30;99.90;;;;;;5056519;28;20377;-74
2020/12/17 01:17:10;;;;;;;10.35;8.32;;;9.30;99.90;;;;;;5083155;28;20056;-74
2020/12/17 01:19:36;;;;;;;10.27;7.95;;;9.30;99.90;;;;;;5065173;28;20020;-74
2020/12/17 01:22:02;;;;;;;12.32;8.80;;;9.30;99.90;;;;;;5057373;28;20025;-75
2020/12/17 01:24:28;;;;;;;11.70;7.85;;;9.30;99.90;;;;;;5064968;28;20028;-74
2020/12/17 01:26:55;;;;;;;11.60;8.57;;;9.40;99.90;;;;;;5086507;28;20024;-74
2020/12/17 01:29:21;;;;;;;10.48;8.38;;;9.40;99.90;;;;;;5084958;28;20048;-75
2020/12/17 01:31:47;;;;;;;9.95;7.65;;;9.40;99.90;;;;;;5082012;28;20100;-75
2020/12/17 01:34:13;;;;;;;11.95;8.80;;;9.40;99.90;;;;;;5065035;28;20109;-75
2020/12/17 01:36:39;;;;;;;10.10;7.78;;;9.40;99.90;;;;;;5068360;28;20020;-74
2020/12/17 01:39:04;;;;;;;9.23;7.22;;;9.40;99.90;;;;;;5080875;28;20039;-75
2020/12/17 01:41:30;;;;;;;9.63;8.13;;;9.40;99.90;;;;;;5058331;28;20020;-74
2020/12/17 01:44:01;;;;;;;13.25;8.52;;;9.40;99.90;;;;;;5086299;28;20024;-75
2020/12/17 01:46:28;;;;;;;13.05;8.55;;;9.30;99.90;;;;;;5084745;28;20027;-74
2020/12/17 01:48:54;;;;;;;11.43;8.50;;;9.30;99.90;;;;;;5082422;28;20127;-74
2020/12/17 01:51:19;;;;;;;13.75;9.18;;;9.30;99.90;;;;;;5065098;28;20503;-75
2020/12/17 01:53:45;;;;;;;11.73;8.75;;;9.20;99.90;;;;;;5083528;28;20055;-74
2020/12/17 01:56:20;;;;;;;12.68;8.20;;;9.10;99.90;;;;;;5071606;28;20074;-74
2020/12/17 01:58:55;;;;;;;12.30;9.63;;;9.10;99.90;;;;;;5082730;28;20025;-74
2020/12/17 02:01:23;;;;;;;13.18;10.63;;;9.10;99.90;;;;;;5065020;28;20023;-75
2020/12/17 02:03:49;;;;;;;14.05;10.02;;;9.00;99.90;;;;;;5072900;28;22110;-75
2020/12/17 02:06:16;;;;;;;15.35;9.48;;;9.00;99.90;;;;;;5065698;28;20032;-74
2020/12/17 02:08:41;;;;;;;14.45;10.38;;;9.00;99.90;;;;;;5062436;28;20032;-75
2020/12/17 02:11:10;;;;;;;12.98;9.77;;;9.00;99.90;;;;;;5083489;28;20028;-75
2020/12/17 02:13:37;;;;;;;13.73;9.70;;;9.00;99.90;;;;;;5078667;28;20059;-74
2020/12/17 02:16:04;;;;;;;15.23;10.30;;;9.00;99.90;;;;;;5083454;28;20028;-75
2020/12/17 02:18:30;;;;;;;13.13;9.90;;;9.00;99.90;;;;;;5082615;28;20028;-74
2020/12/17 02:20:56;;;;;;;14.98;10.10;;;9.00;99.90;;;;;;5083152;28;20530;-74
2020/12/17 02:23:22;;;;;;;13.65;10.13;;;9.00;99.90;;;;;;5071851;28;20020;-74
2020/12/17 02:25:50;;;;;;;15.77;10.35;;;9.00;99.90;;;;;;5063090;28;20514;-75
2020/12/17 02:28:20;;;;;;;14.80;9.93;;;9.00;99.90;;;;;;5066037;28;20467;-74
2020/12/17 02:30:45;;;;;;;13.90;9.75;;;9.00;99.90;;;;;;5064240;28;20031;-75
2020/12/17 02:33:12;;;;;;;12.13;9.32;;;9.00;99.90;;;;;;5057863;28;20020;-74
2020/12/17 02:35:38;;;;;;;12.88;9.73;;;9.00;99.90;;;;;;5058387;28;20069;-75
2020/12/17 02:38:04;;;;;;;12.45;10.20;;;9.00;99.90;;;;;;5084965;28;20091;-75
2020/12/17 02:40:30;;;;;;;12.20;9.25;;;9.10;99.90;;;;;;5084093;28;20024;-74
2020/12/17 02:42:55;;;;;;;12.40;9.27;;;9.10;99.90;;;;;;5080981;28;20016;-75
2020/12/17 02:45:21;;;;;;;10.98;9.05;;;9.10;99.90;;;;;;5063228;28;20487;-74
2020/12/17 02:47:47;;;;;;;15.55;9.75;;;9.10;99.90;;;;;;5063590;28;20073;-75
2020/12/17 02:50:14;;;;;;;12.98;9.73;;;9.10;99.90;;;;;;5062981;28;20036;-74
2020/12/17 02:52:40;;;;;;;12.25;9.38;;;9.10;99.90;;;;;;5082344;28;20040;-75
2020/12/17 02:55:07;;;;;;;12.40;8.68;;;9.10;99.90;;;;;;5063536;28;20023;-74
2020/12/17 02:57:33;;;;;;;17.00;9.07;;;9.10;99.90;;;;;;5080663;28;20070;-74
2020/12/17 02:59:59;;;;;;;12.70;9.02;;;9.20;99.90;;;;;;5080476;28;20099;-75
2020/12/17 03:02:25;;;;;;;13.25;9.18;;;9.20;99.90;;;;;;5062700;28;20116;-75
2020/12/17 03:04:51;;;;;;;10.57;7.85;;;9.20;99.90;;;;;;5085090;28;20024;-74
2020/12/17 03:07:16;;;;;;;12.13;8.80;;;9.20;99.90;;;;;;5054793;28;20020;-75
2020/12/17 03:09:42;;;;;;;11.90;8.50;;;9.30;99.90;;;;;;5065238;28;20065;-75
2020/12/17 03:12:07;;;;;;;10.73;8.20;;;9.30;99.90;;;;;;5065563;28;20077;-74
2020/12/17 03:14:33;;;;;;;11.57;8.38;;;9.30;99.90;;;;;;5062687;28;20013;-75
2020/12/17 03:16:58;;;;;;;10.07;8.20;;;9.30;99.90;;;;;;5079295;28;20373;-74
2020/12/17 03:19:24;;;;;;;11.45;8.65;;;9.30;99.90;;;;;;5081915;28;20028;-75
2020/12/17 03:21:52;;;;;;;12.23;8.25;;;9.30;99.90;;;;;;5084658;28;20028;-75
2020/12/17 03:24:18;;;;;;;11.25;8.23;;;9.40;99.90;;;;;;5062913;28;20020;-74
2020/12/17 03:26:43;;;;;;;10.63;8.55;;;9.40;99.90;;;;;;5062759;28;20024;-74
2020/12/17 03:29:09;;;;;;;11.32;8.55;;;9.40;99.90;;;;;;5065528;28;20013;-74
2020/12/17 03:31:34;;;;;;;12.10;8.73;;;9.40;99.90;;;;;;5062480;28;20020;-75
2020/12/17 03:34:00;;;;;;;10.77;7.70;;;9.30;99.90;;;;;;5062099;28;20095;-75
2020/12/17 03:36:25;;;;;;;10.50;7.80;;;9.30;99.90;;;;;;5064172;28;20513;-75
2020/12/17 03:38:51;;;;;;;12.38;8.43;;;9.20;99.90;;;;;;5079988;28;20051;-75
2020/12/17 03:41:17;;;;;;;9.77;7.95;;;9.20;99.90;;;;;;5062027;28;20036;-75
2020/12/17 03:43:42;;;;;;;12.07;8.70;;;9.20;99.90;;;;;;5082010;28;20068;-76
2020/12/17 03:46:08;;;;;;;14.57;8.65;;;9.20;99.90;;;;;;5082492;28;20495;-75
2020/12/17 03:48:33;;;;;;;14.82;8.90;;;9.10;99.90;;;;;;5082695;28;20518;-75
2020/12/17 03:50:59;;;;;;;10.77;9.20;;;9.10;99.90;;;;;;5062578;28;20375;-75
2020/12/17 03:53:24;;;;;;;13.88;9.77;;;9.00;99.90;;;;;;5082306;28;20104;-75
2020/12/17 03:55:50;;;;;;;12.48;9.02;;;9.10;99.90;;;;;;5064922;28;20339;-75
2020/12/17 03:58:15;;;;;;;13.27;9.38;;;9.00;99.90;;;;;;5062014;28;20031;-75
2020/12/17 04:00:41;;;;;;;17.08;9.32;;;9.10;99.90;;;;;;5055144;28;20051;-75
2020/12/17 04:03:07;;;;;;;12.02;8.77;;;9.10;99.90;;;;;;5081618;28;20450;-75
2020/12/17 04:05:32;;;;;;;14.52;9.10;;;9.10;99.90;;;;;;5081510;28;20012;-74
2020/12/17 04:07:58;;;;;;;13.50;9.82;;;9.10;99.90;;;;;;5054265;28;20020;-74
2020/12/17 04:10:23;;;;;;;13.52;9.32;;;9.10;99.90;;;;;;5082777;28;20510;-75
2020/12/17 04:12:49;;;;;;;13.95;9.85;;;9.10;99.90;;;;;;5062270;28;20131;-74
2020/12/17 04:15:14;;;;;;;13.05;9.02;;;9.10;99.90;;;;;;5082701;28;20020;-74
2020/12/17 04:17:40;;;;;;;13.30;9.27;;;9.10;99.90;;;;;;5066891;28;20039;-75
2020/12/17 04:20:05;;;;;;;13.10;9.48;;;9.10;99.90;;;;;;5080376;28;20029;-74
2020/12/17 04:22:32;;;;;;;15.82;9.43;;;9.10;99.90;;;;;;5063425;28;20109;-74
2020/12/17 04:24:57;;;;;;;18.42;9.93;;;9.10;99.90;;;;;;5081460;28;20062;-74
2020/12/17 04:27:23;;;;;;;13.32;9.80;;;9.10;99.90;;;;;;5062646;28;20491;-74
2020/12/17 04:29:48;;;;;;;12.98;9.18;;;9.10;99.90;;;;;;5082500;28;20021;-75
2020/12/17 04:32:14;;;;;;;15.98;9.85;;;9.10;99.90;;;;;;5056257;28;20012;-75
2020/12/17 04:34:39;;;;;;;12.52;9.15;;;9.10;99.90;;;;;;5058547;28;20013;-74
2020/12/17 04:37:05;;;;;;;13.93;9.48;;;9.10;99.90;;;;;;5066720;28;20016;-75
2020/12/17 04:39:31;;;;;;;15.77;9.80;;;9.10;99.90;;;;;;5084102;28;20055;-75
2020/12/17 04:41:57;;;;;;;13.80;9.43;;;9.10;99.90;;;;;;5056532;28;20025;-75
2020/12/17 04:44:23;;;;;;;14.60;9.13;;;9.10;99.90;;;;;;5083158;28;20067;-75
2020/12/17 04:46:55;;;;;;;15.35;9.88;;;9.10;99.90;;;;;;5081893;28;20052;-75
2020/12/17 04:49:32;;;;;;;15.90;10.27;;;9.10;99.90;;;;;;5071562;28;20436;-75
2020/12/17 04:51:57;;;;;;;17.20;10.15;;;9.20;99.90;;;;;;5085236;28;20476;-74
2020/12/17 04:54:24;;;;;;;14.95;9.70;;;9.20;99.90;;;;;;5064562;28;20031;-75
2020/12/17 04:57:11;;;;;;;13.85;9.60;;;9.20;99.90;;;;;;5083611;28;20025;-75
2020/12/17 04:59:48;;;;;;;17.83;10.38;;;9.20;99.90;;;;;;5083119;28;20016;-75
2020/12/17 05:02:15;;;;;;;17.38;10.73;;;9.20;99.90;;;;;;5081679;28;20020;-75
2020/12/17 05:04:43;;;;;;;17.30;11.68;;;9.20;99.90;;;;;;5086544;28;20024;-75
2020/12/17 05:07:17;;;;;;;14.65;12.05;;;9.20;99.90;;;;;;5067018;28;20032;-75
2020/12/17 05:09:44;;;;;;;18.33;13.32;;;9.20;99.90;;;;;;5082618;28;20396;-74
2020/12/17 05:12:10;;;;;;;19.52;11.43;;;9.20;99.90;;;;;;5083332;28;20047;-74
2020/12/17 05:14:36;;;;;;;16.58;11.82;;;9.20;99.90;;;;;;5085303;28;20027;-75
2020/12/17 05:17:03;;;;;;;16.55;11.73;;;9.20;99.90;;;;;;5066088;28;20020;-75
2020/12/17 05:19:28;;;;;;;16.40;11.98;;;9.20;99.90;;;;;;5067449;28;20039;-75
2020/12/17 05:21:55;;;;;;;18.13;12.65;;;9.20;99.90;;;;;;5067984;28;20024;-74
2020/12/17 05:24:22;;;;;;;18.55;13.90;;;9.30;99.90;;;;;;5087132;28;20095;-75
2020/12/17 05:26:52;;;;;;;21.92;13.80;;;9.30;99.90;;;;;;5079808;28;20511;-75
2020/12/17 05:29:18;;;;;;;23.35;14.82;;;9.30;99.90;;;;;;5066087;28;20021;-75
2020/12/17 05:31:45;;;;;;;18.65;13.70;;;9.30;99.90;;;;;;5082131;28;20020;-74
2020/12/17 05:34:11;;;;;;;18.63;12.80;;;9.30;99.90;;;;;;5066126;28;20069;-75
2020/12/17 05:36:39;;;;;;;17.95;13.55;;;9.30;99.90;;;;;;5086857;28;20024;-74
2020/12/17 05:39:11;;;;;;;17.08;13.45;;;9.30;99.90;;;;;;5084282;28;20028;-75
2020/12/17 05:41:38;;;;;;;20.30;13.30;;;9.30;99.90;;;;;;5086411;28;20101;-75
2020/12/17 05:44:28;;;;;;;17.88;14.07;;;9.30;99.90;;;;;;5063818;28;20024;-75
2020/12/17 05:46:55;;;;;;;19.30;14.45;;;9.30;99.90;;;;;;5062804;28;20020;-75
2020/12/17 05:49:29;;;;;;;20.52;14.35;;;9.30;99.90;;;;;;5066265;28;20036;-75
2020/12/17 05:52:09;;;;;;;21.25;14.70;;;9.30;99.90;;;;;;5065376;28;20437;-75
2020/12/17 05:54:35;;;;;;;19.75;15.50;;;9.30;99.90;;;;;;5080865;28;20031;-75
2020/12/17 05:57:06;;;;;;;21.05;16.35;;;9.30;99.90;;;;;;5080710;28;20048;-75
2020/12/17 05:59:33;;;;;;;22.67;16.52;;;9.30;99.90;;;;;;5064476;28;20027;-75
2020/12/17 06:02:17;;;;;;;21.55;15.77;;;9.20;99.90;;;;;;5084154;28;20103;-75
2020/12/17 06:04:43;;;;;;;21.95;16.75;;;9.30;99.90;;;;;;5082126;28;20487;-75
2020/12/17 06:07:14;;;;;;;29.13;19.38;;;9.30;99.90;;;;;;5063248;28;20303;-74
2020/12/17 06:09:46;;;;;;;22.83;17.88;;;9.30;99.90;;;;;;5063216;28;20024;-75
2020/12/17 06:12:18;;;;;;;23.48;17.67;;;9.30;99.90;;;;;;5066826;28;20065;-74
2020/12/17 06:14:46;;;;;;;27.17;21.20;;;9.30;99.90;;;;;;5082467;28;20055;-75
2020/12/17 06:17:17;;;;;;;30.55;21.45;;;9.30;99.90;;;;;;5064280;28;20369;-75
2020/12/17 06:19:43;;;;;;;29.55;21.80;;;9.30;99.90;;;;;;5065053;28;20119;-75
2020/12/17 06:22:10;;;;;;;27.42;20.55;;;9.30;99.90;;;;;;5084316;28;20121;-75
2020/12/17 06:24:37;;;;;;;33.22;22.88;;;9.30;99.90;;;;;;5082677;28;20032;-75
2020/12/17 06:27:07;;;;;;;28.92;21.17;;;9.30;99.90;;;;;;5062871;28;20419;-76
2020/12/17 06:29:47;;;;;;;31.00;23.42;;;9.30;99.90;;;;;;5065840;28;20020;-75
2020/12/17 06:32:16;;;;;;;30.63;22.08;;;9.30;99.90;;;;;;5063048;28;20048;-75
2020/12/17 06:34:43;;;;;;;29.70;23.30;;;9.20;99.90;;;;;;5066103;28;20029;-75
2020/12/17 06:37:14;;;;;;;31.23;23.45;;;9.20;99.90;;;;;;5084736;28;20036;-75
2020/12/17 06:39:46;;;;;;;32.92;22.70;;;9.20;99.90;;;;;;5083088;28;20012;-75
2020/12/17 06:42:47;;;;;;;34.90;23.13;;;9.20;99.90;;;;;;5063886;28;20020;-75
2020/12/17 06:45:27;;;;;;;35.25;25.40;;;9.20;99.90;;;;;;5010402;28;20481;-75
2020/12/17 06:47:53;;;;;;;42.10;25.17;;;9.20;99.90;;;;;;5073471;28;20044;-75
2020/12/17 06:50:23;;;;;;;35.97;24.73;;;9.20;99.90;;;;;;5057748;28;20048;-75
2020/12/17 06:53:08;;;;;;;33.13;24.83;;;9.20;99.90;;;;;;5080918;28;20032;-75
2020/12/17 06:55:45;;;;;;;34.28;24.50;;;9.20;99.90;;;;;;5071734;28;20052;-75
2020/12/17 06:58:24;;;;;;;30.50;24.60;;;9.20;99.90;;;;;;5074610;28;20018;-75
2020/12/17 07:00:52;;;;;;;34.67;24.85;;;9.10;99.90;;;;;;5063375;28;20031;-75
2020/12/17 07:03:47;;;;;;;36.50;25.20;;;9.10;99.90;;;;;;5054841;28;20059;-75
2020/12/17 07:06:24;;;;;;;32.45;25.05;;;9.20;99.90;;;;;;5054585;28;20032;-75
2020/12/17 07:08:57;;;;;;;38.58;28.52;;;9.10;99.90;;;;;;5072966;28;20098;-75
2020/12/17 07:11:52;;;;;;;36.35;26.30;;;9.10;99.90;;;;;;5072668;28;20032;-75
2020/12/17 07:14:24;;;;;;;37.22;27.52;;;9.20;99.90;;;;;;5037936;28;20260;-75
2020/12/17 07:16:52;;;;;;;37.30;26.67;;;9.10;99.90;;;;;;5054937;28;20025;-75
2020/12/17 07:19:48;;;;;;;43.33;30.33;;;9.10;99.90;;;;;;5072728;28;20082;-75
2020/12/17 07:22:17;;;;;;;38.25;26.98;;;9.20;99.90;;;;;;5071519;28;20028;-74
2020/12/17 07:24:44;;;;;;;39.75;29.45;;;9.10;99.90;;;;;;5074565;28;20487;-75
2020/12/17 07:27:15;;;;;;;38.25;27.77;;;9.10;99.90;;;;;;5064248;28;20535;-75
2020/12/17 07:29:48;;;;;;;38.67;27.90;;;9.10;99.90;;;;;;5054516;28;20031;-75
2020/12/17 07:32:32;;;;;;;38.67;27.98;;;9.10;99.90;;;;;;5054724;28;20041;-75
2020/12/17 07:35:05;;;;;;;45.95;31.00;;;9.10;99.90;;;;;;5058798;28;20077;-75
2020/12/17 07:37:33;;;;;;;41.40;29.50;;;9.10;99.90;;;;;;5092860;28;20101;-75
2020/12/17 07:40:03;;;;;;;41.47;27.73;;;9.10;99.90;;;;;;5069099;28;20027;-74
2020/12/17 07:42:30;;;;;;;36.03;26.05;;;9.10;99.90;;;;;;5060164;28;20143;-75
2020/12/17 07:44:56;;;;;;;38.58;28.20;;;9.10;99.90;;;;;;5075015;28;20020;-74
2020/12/17 07:47:22;;;;;;;42.20;28.95;;;9.10;99.90;;;;;;5056379;28;20033;-75
2020/12/17 07:49:47;;;;;;;38.90;27.30;;;9.10;99.90;;;;;;5066073;28;20049;-75
2020/12/17 07:52:30;;;;;;;38.28;26.70;;;9.10;99.90;;;;;;5082926;28;20016;-74
2020/12/17 07:54:55;;;;;;;33.20;24.88;;;9.10;99.90;;;;;;5065025;28;20482;-75
2020/12/17 07:57:21;;;;;;;32.20;24.65;;;9.10;99.90;;;;;;5077666;28;20098;-74
2020/12/17 07:59:46;;;;;;;35.78;24.92;;;9.10;99.90;;;;;;5071374;28;20062;-75
2020/12/17 08:02:13;;;;;;;36.42;25.02;;;9.10;99.90;;;;;;5086812;28;20058;-75
2020/12/17 08:04:45;;;;;;;32.40;24.10;;;9.10;99.90;;;;;;5082485;28;20032;-75
2020/12/17 08:07:10;;;;;;;35.83;25.60;;;9.10;99.90;;;;;;5065725;28;20073;-74
2020/12/17 08:09:36;;;;;;;37.08;25.63;;;9.10;99.90;;;;;;5077149;28;20024;-74
2020/12/17 08:12:02;;;;;;;32.80;24.52;;;9.10;99.90;;;;;;5078077;28;20024;-75
2020/12/17 08:14:27;;;;;;;27.73;21.60;;;9.10;99.90;;;;;;5096123;28;20024;-75
2020/12/17 08:17:04;;;;;;;29.48;22.25;;;9.10;99.90;;;;;;5096334;28;20383;-75
2020/12/17 08:19:29;;;;;;;33.25;23.08;;;9.10;99.90;;;;;;5096163;28;20028;-75
2020/12/17 08:21:56;;;;;;;33.58;23.30;;;9.10;99.90;;;;;;5092849;28;20035;-76
2020/12/17 08:24:29;;;;;;;28.02;20.98;;;9.20;99.90;;;;;;5077978;28;20468;-75
2020/12/17 08:26:55;;;;;;;29.48;20.83;;;9.20;99.90;;;;;;5095771;28;20472;-75
2020/12/17 08:29:23;;;;;;;25.50;18.85;;;9.20;99.90;;;;;;5096041;28;20071;-75
2020/12/17 08:31:49;;;;;;;25.85;19.45;;;9.20;99.90;;;;;;5063409;28;20559;-75
2020/12/17 08:34:15;;;;;;;28.42;20.40;;;9.20;99.90;;;;;;5078751;28;20098;-75
2020/12/17 08:36:41;;;;;;;26.63;19.30;;;9.20;99.90;;;;;;5076882;28;20479;-75
2020/12/17 08:39:11;;;;;;;28.48;20.50;;;9.20;99.90;;;;;;5075585;28;20067;-75
2020/12/17 08:41:42;;;;;;;25.77;19.65;;;9.20;99.90;;;;;;5075310;28;20032;-74
2020/12/17 08:44:09;;;;;;;27.20;19.00;;;9.20;99.90;;;;;;5077758;28;20047;-74
2020/12/17 08:46:46;;;;;;;22.27;17.70;;;9.30;99.90;;;;;;5095371;28;20032;-75
2020/12/17 08:49:14;;;;;;;21.60;17.23;;;9.30;99.90;;;;;;5077133;28;20036;-75
2020/12/17 08:51:45;;;;;;;25.98;18.65;;;9.30;99.90;;;;;;5094174;28;20070;-75
2020/12/17 08:54:26;;;;;;;22.15;17.42;;;9.30;99.90;;;;;;5077064;28;20027;-74
2020/12/17 08:57:11;;;;;;;23.40;17.20;;;9.30;99.90;;;;;;5095428;28;20024;-75
2020/12/17 08:59:38;;;;;;;23.05;16.42;;;9.30;99.90;;;;;;5076509;28;20028;-75
2020/12/17 09:02:03;;;;;;;19.48;14.85;;;9.30;99.90;;;;;;5094953;28;20365;-75
2020/12/17 09:04:29;;;;;;;18.38;15.63;;;9.40;99.90;;;;;;5090270;28;20039;-75
2020/12/17 09:06:59;;;;;;;18.27;13.77;;;9.40;99.90;;;;;;5082959;28;20111;-75
2020/12/17 09:09:27;;;;;;;16.75;14.07;;;9.40;99.90;;;;;;5061231;28;20041;-76
2020/12/17 09:11:55;;;;;;;17.92;13.60;;;9.40;99.90;;;;;;5056432;28;20074;-75
2020/12/17 09:14:30;;;;;;;15.57;11.63;;;9.40;99.90;;;;;;5085467;28;20020;-75
2020/12/17 09:17:10;;;;;;;13.02;10.48;;;9.40;99.90;;;;;;5076780;28;20024;-75
2020/12/17 09:19:35;;;;;;;10.60;9.35;;;9.40;99.90;;;;;;5075585;28;20555;-75
2020/12/17 09:22:01;;;;;;;13.52;10.15;;;9.40;99.90;;;;;;5086089;28;20027;-75
2020/12/17 09:24:31;;;;;;;14.70;9.82;;;9.30;99.90;;;;;;5091043;28;20024;-75
2020/12/17 09:26:57;;;;;;;13.93;10.35;;;9.40;99.90;;;;;;5063934;28;20023;-74
2020/12/17 09:29:23;;;;;;;14.65;9.82;;;9.30;99.90;;;;;;5071893;28;20480;-74
2020/12/17 09:31:49;;;;;;;13.48;9.13;;;9.40;99.90;;;;;;5094684;28;20031;-74
2020/12/17 09:34:17;;;;;;;11.98;9.45;;;9.40;99.90;;;;;;5070472;28;20021;-75
2020/12/17 09:36:53;;;;;;;11.05;9.40;;;9.40;99.90;;;;;;5083566;28;20046;-74
2020/12/17 09:39:19;;;;;;;10.25;8.57;;;9.30;99.90;;;;;;5056459;28;20071;-74
2020/12/17 09:41:55;;;;;;;10.18;9.05;;;9.30;99.90;;;;;;5074285;28;20029;-74
2020/12/17 09:44:33;;;;;;;13.02;9.80;;;9.30;99.90;;;;;;5074274;28;20024;-74
2020/12/17 09:47:00;;;;;;;12.43;9.27;;;9.30;99.90;;;;;;5056099;28;20460;-74
2020/12/17 09:49:31;;;;;;;13.77;9.55;;;9.30;99.90;;;;;;5076399;28;20036;-74
2020/12/17 09:52:24;;;;;;;12.68;8.70;;;9.40;99.90;;;;;;5074194;28;20020;-74
2020/12/17 09:54:53;;;;;;;13.27;7.60;;;9.50;99.90;;;;;;5052936;28;20090;-74
2020/12/17 09:57:18;;;;;;;12.77;8.40;;;9.60;99.90;;;;;;5087598;28;20126;-74
2020/12/17 09:59:45;;;;;;;12.48;8.30;;;9.60;99.90;;;;;;5090799;28;20115;-74
2020/12/17 10:02:13;;;;;;;11.93;7.07;;;9.60;99.90;;;;;;5085323;28;20072;-74
2020/12/17 10:04:41;;;;;;;8.90;7.05;;;9.60;99.90;;;;;;5093239;28;20048;-74
2020/12/17 10:07:08;;;;;;;12.13;7.55;;;9.60;99.90;;;;;;5073956;28;20579;-74
2020/12/17 10:09:34;;;;;;;15.85;7.32;;;9.60;99.90;;;;;;5065655;28;20021;-74
2020/12/17 10:12:00;;;;;;;11.32;7.05;;;9.70;99.90;;;;;;5070031;28;20024;-74
2020/12/17 10:14:27;;;;;;;12.27;6.63;;;9.60;99.90;;;;;;5060664;28;20078;-74
2020/12/17 10:17:00;;;;;;;12.23;6.50;;;9.60;99.90;;;;;;5055744;28;20021;-74
2020/12/17 10:19:28;;;;;;;13.73;6.45;;;9.70;99.90;;;;;;5055990;28;20093;-74
2020/12/17 10:21:54;;;;;;;11.98;6.45;;;9.70;99.90;;;;;;5072195;28;20498;-74
2020/12/17 10:24:19;;;;;;;11.80;6.05;;;9.70;99.90;;;;;;5082884;28;20051;-74
2020/12/17 10:26:45;;;;;;;12.05;6.43;;;9.80;99.90;;;;;;5057686;28;20031;-74
2020/12/17 10:29:10;;;;;;;14.23;7.07;;;9.80;99.90;;;;;;5073580;28;20104;-74
2020/12/17 10:31:36;;;;;;;12.60;6.82;;;9.80;99.90;;;;;;5055210;28;20419;-74
2020/12/17 10:34:02;;;;;;;14.57;7.10;;;9.80;99.90;;;;;;5059781;28;20112;-74
2020/12/17 10:36:27;;;;;;;8.18;5.55;;;10.00;99.90;;;;;;5076647;28;20452;-75
2020/12/17 10:38:53;;;;;;;11.98;5.35;;;10.30;99.90;;;;;;5088821;28;20028;-74
2020/12/17 10:41:25;;;;;;;9.13;5.38;;;10.40;99.90;;;;;;5088780;28;20039;-74
2020/12/17 10:43:52;;;;;;;9.75;5.63;;;10.50;99.90;;;;;;5055237;28;20025;-74
2020/12/17 10:46:18;;;;;;;10.43;5.57;;;10.50;99.90;;;;;;5072969;28;20051;-74
2020/12/17 10:48:44;;;;;;;9.10;4.93;;;10.70;99.90;;;;;;5072703;28;20556;-74
2020/12/17 10:51:13;;;;;;;12.18;5.35;;;11.00;99.90;;;;;;5055257;28;20052;-74
2020/12/17 10:53:38;;;;;;;9.73;4.85;;;11.10;99.90;;;;;;5072861;28;20373;-74
2020/12/17 10:56:06;;;;;;;13.23;4.55;;;11.30;98.90;;;;;;5072977;28;20024;-74
2020/12/17 10:58:32;;;;;;;9.45;4.18;;;11.60;98.90;;;;;;5072834;28;20021;-74
2020/12/17 11:00:58;;;;;;;6.95;4.18;;;11.60;98.30;;;;;;5072757;28;20507;-74
2020/12/17 11:03:24;;;;;;;12.00;5.45;;;11.30;97.50;;;;;;5054774;28;20027;-74
2020/12/17 11:05:49;;;;;;;7.53;5.07;;;11.30;98.00;;;;;;5073063;28;20107;-74
2020/12/17 11:08:15;;;;;;;14.00;5.80;;;11.40;98.20;;;;;;5072815;28;20017;-74
2020/12/17 11:10:40;;;;;;;12.55;5.15;;;11.30;97.90;;;;;;5054786;28;20021;-74
2020/12/17 11:13:06;;;;;;;8.30;5.00;;;11.20;98.60;;;;;;5091552;28;20032;-73
2020/12/17 11:15:32;;;;;;;11.07;5.60;;;11.10;98.70;;;;;;5071451;28;20101;-74
2020/12/17 11:17:57;;;;;;;11.10;4.85;;;11.10;98.50;;;;;;5083712;28;20032;-74
2020/12/17 11:20:23;;;;;;;12.35;5.30;;;11.10;99.00;;;;;;5062855;28;20074;-74
2020/12/17 11:22:49;;;;;;;13.55;6.22;;;11.10;98.60;;;;;;5064852;28;20033;-74
2020/12/17 11:25:14;;;;;;;12.80;5.95;;;11.10;99.40;;;;;;5082868;28;20081;-74
2020/12/17 11:27:40;;;;;;;12.57;6.07;;;11.10;99.30;;;;;;5081249;28;20029;-74
2020/12/17 11:30:07;;;;;;;15.48;5.47;;;11.20;98.90;;;;;;5080607;28;20025;-74
2020/12/17 11:32:36;;;;;;;11.68;5.35;;;11.20;98.90;;;;;;5061378;28;20503;-74
2020/12/17 11:35:06;;;;;;;8.57;5.23;;;11.30;99.00;;;;;;5083773;28;20025;-74
2020/12/17 11:37:32;;;;;;;;;;;11.20;98.00;;;;;;5084954;28;20020;-74
2020/12/17 11:39:57;;;;;;;14.38;4.82;;;11.10;97.70;;;;;;5092709;28;20279;-74
2020/12/17 11:42:23;;;;;;;12.52;5.57;;;10.90;98.40;;;;;;5093226;28;20031;-73
2020/12/17 11:44:48;;;;;;;14.63;6.05;;;10.80;99.00;;;;;;5096590;28;20402;-74
2020/12/17 11:47:15;;;;;;;14.70;5.82;;;10.70;98.80;;;;;;5096570;28;20024;-74
2020/12/17 11:49:40;;;;;;;11.73;5.55;;;10.70;99.60;;;;;;5096566;28;20043;-74
2020/12/17 11:52:06;;;;;;;15.63;6.50;;;10.80;99.60;;;;;;5074412;28;20016;-74
2020/12/17 11:54:31;;;;;;;10.98;5.53;;;10.80;99.70;;;;;;5076262;28;20044;-75
2020/12/17 11:56:57;;;;;;;11.57;4.90;;;10.90;99.70;;;;;;5056825;28;20060;-74
2020/12/17 11:59:23;;;;;;;9.07;5.22;;;11.00;98.80;;;;;;5056491;28;20017;-74
2020/12/17 12:01:48;;;;;;;11.35;5.50;;;11.20;98.90;;;;;;5076836;28;20519;-74
2020/12/17 12:04:14;;;;;;;13.98;5.25;;;11.20;98.00;;;;;;5056709;28;20553;-74
2020/12/17 12:06:39;;;;;;;13.23;5.18;;;11.10;98.20;;;;;;5074857;28;20028;-74
2020/12/17 12:09:07;;;;;;;15.65;5.18;;;11.00;98.00;;;;;;5075052;28;20491;-74
2020/12/17 12:11:33;;;;;;;11.45;5.18;;;11.00;98.00;;;;;;5074714;28;20098;-74
2020/12/17 12:13:58;;;;;;;11.85;4.75;;;10.90;98.40;;;;;;5070178;28;20409;-74
2020/12/17 12:16:24;;;;;;;7.55;4.03;;;10.90;98.40;;;;;;5074401;28;20060;-74
2020/12/17 12:18:52;;;;;;;11.57;4.13;;;10.90;98.40;;;;;;5075496;28;20118;-74
2020/12/17 12:21:18;;;;;;;16.35;4.53;;;10.80;97.90;;;;;;5074071;28;20021;-74
2020/12/17 12:23:46;;;;;;;9.13;4.07;;;10.80;97.40;;;;;;5074120;28;20048;-74
2020/12/17 12:26:12;;;;;;;13.43;4.30;;;10.80;98.30;;;;;;5055979;28;20055;-74
2020/12/17 12:28:38;;;;;;;11.20;4.70;;;10.90;97.90;;;;;;5074976;28;20040;-74
2020/12/17 12:31:04;;;;;;;18.05;4.43;;;10.90;97.80;;;;;;5064318;28;20483;-74
2020/12/17 12:33:30;;;;;;;10.63;4.45;;;10.90;97.80;;;;;;5082211;28;20430;-74
2020/12/17 12:35:57;;;;;;;9.65;4.60;;;10.80;98.00;;;;;;5077486;28;20095;-74
2020/12/17 12:38:22;;;;;;;7.70;4.15;;;10.80;97.50;;;;;;5063996;28;20059;-74
2020/12/17 12:40:48;;;;;;;9.18;3.92;;;10.80;97.30;;;;;;5056749;28;20048;-74
2020/12/17 12:43:13;;;;;;;10.63;3.75;;;10.80;97.60;;;;;;5056412;28;20028;-74
2020/12/17 12:45:39;;;;;;;8.85;4.57;;;10.80;97.80;;;;;;5074582;28;20499;-74
2020/12/17 12:48:05;;;;;;;8.07;3.30;;;10.80;97.70;;;;;;5056082;28;20492;-75